sensor_id;sensor_type;location;lat;lon;timestamp;pressure;altitude;pressure_sealevel;temperature;humidity
41830;BME280;38614;43.472;23.936;2023-02-17T00:02:22;101052.56;;;-1.11;nan
41830;BME280;38614;43.472;23.936;2023-02-17T00:05:09;101112.41;;;-0.91;nan
41830;BME280;38614;43.472;23.936;2023-02-17T00:07:57;101096.88;;;-0.95;nan
41830;BME280;38614;43.472;23.936;2023-02-17T00:10:54;101107.56;;;-0.83;nan
41830;BME280;38614;43.472;23.936;2023-02-17T00:13:42;101084.91;;;-0.99;nan
41830;BME280;38614;43.472;23.936;2023-02-17T00:16:30;101103.13;;;-0.95;nan
41830;BME280;38614;43.472;23.936;2023-02-17T00:19:17;101062.28;;;-1.15;nan
41830;BME280;38614;43.472;23.936;2023-02-17T00:22:11;101099.31;;;-0.99;nan
41830;BME280;38614;43.472;23.936;2023-02-17T00:24:59;101093.81;;;-1.04;nan
41830;BME280;38614;43.472;23.936;2023-02-17T00:27:47;101090.53;;;-1.11;nan
41830;BME280;38614;43.472;23.936;2023-02-17T00:30:36;101100.78;;;-1.13;nan
41830;BME280;38614;43.472;23.936;2023-02-17T00:33:24;101014.34;;;-1.68;nan
41830;BME280;38614;43.472;23.936;2023-02-17T00:36:14;101108.09;;;-1.19;nan
41830;BME280;38614;43.472;23.936;2023-02-17T00:39:05;101058.78;;;-1.42;nan
41830;BME280;38614;43.472;23.936;2023-02-17T00:41:52;101070.16;;;-1.46;nan
41830;BME280;38614;43.472;23.936;2023-02-17T00:44:40;101100.88;;;-1.35;nan
41830;BME280;38614;43.472;23.936;2023-02-17T00:47:28;101073.03;;;-1.57;nan
41830;BME280;38614;43.472;23.936;2023-02-17T00:50:18;101087.53;;;-1.41;nan
41830;BME280;38614;43.472;23.936;2023-02-17T00:53:07;101093.75;;;-1.41;nan
41830;BME280;38614;43.472;23.936;2023-02-17T00:55:55;101083.97;;;-1.47;nan
41830;BME280;38614;43.472;23.936;2023-02-17T00:58:43;101080.72;;;-1.44;nan
41830;BME280;38614;43.472;23.936;2023-02-17T01:01:32;101074.56;;;-1.39;nan
41830;BME280;38614;43.472;23.936;2023-02-17T01:04:20;101085.44;;;-1.34;nan
41830;BME280;38614;43.472;23.936;2023-02-17T01:07:08;101077.25;;;-1.39;nan
41830;BME280;38614;43.472;23.936;2023-02-17T01:09:56;101079.72;;;-1.38;nan
41830;BME280;38614;43.472;23.936;2023-02-17T01:12:43;101043.41;;;-1.64;nan
41830;BME280;38614;43.472;23.936;2023-02-17T01:15:36;101065.47;;;-1.50;nan
41830;BME280;38614;43.472;23.936;2023-02-17T01:18:24;101071.00;;;-1.40;nan
41830;BME280;38614;43.472;23.936;2023-02-17T01:21:21;101060.06;;;-1.50;nan
41830;BME280;38614;43.472;23.936;2023-02-17T01:24:11;101068.88;;;-1.38;nan
41830;BME280;38614;43.472;23.936;2023-02-17T01:26:59;101062.38;;;-1.37;nan
41830;BME280;38614;43.472;23.936;2023-02-17T01:29:47;101060.47;;;-1.36;nan
41830;BME280;38614;43.472;23.936;2023-02-17T01:32:35;101065.91;;;-1.36;nan
41830;BME280;38614;43.472;23.936;2023-02-17T01:35:23;101062.09;;;-1.35;nan
41830;BME280;38614;43.472;23.936;2023-02-17T01:38:11;101067.63;;;-1.25;nan
41830;BME280;38614;43.472;23.936;2023-02-17T01:40:59;101060.09;;;-1.18;nan
41830;BME280;38614;43.472;23.936;2023-02-17T01:44:10;101059.75;;;-1.27;nan
41830;BME280;38614;43.472;23.936;2023-02-17T01:46:58;101052.00;;;-1.40;nan
41830;BME280;38614;43.472;23.936;2023-02-17T01:49:46;101056.38;;;-1.39;nan
41830;BME280;38614;43.472;23.936;2023-02-17T01:52:34;100998.09;;;-1.68;nan
41830;BME280;38614;43.472;23.936;2023-02-17T01:55:23;101028.41;;;-1.45;nan
41830;BME280;38614;43.472;23.936;2023-02-17T01:58:14;101044.94;;;-1.46;nan
41830;BME280;38614;43.472;23.936;2023-02-17T02:01:05;101045.31;;;-1.32;nan
41830;BME280;38614;43.472;23.936;2023-02-17T02:03:53;101005.75;;;-1.60;nan
41830;BME280;38614;43.472;23.936;2023-02-17T02:06:42;101048.25;;;-1.39;nan
41830;BME280;38614;43.472;23.936;2023-02-17T02:09:35;101039.78;;;-1.48;nan
41830;BME280;38614;43.472;23.936;2023-02-17T02:12:25;101051.69;;;-1.49;nan
41830;BME280;38614;43.472;23.936;2023-02-17T02:15:14;101052.50;;;-1.48;nan
41830;BME280;38614;43.472;23.936;2023-02-17T02:30:19;101034.19;;;-1.63;nan
41830;BME280;38614;43.472;23.936;2023-02-17T02:33:25;101005.41;;;-1.69;nan
41830;BME280;38614;43.472;23.936;2023-02-17T02:36:30;101026.56;;;-1.39;nan
41830;BME280;38614;43.472;23.936;2023-02-17T02:39:20;100994.56;;;-1.69;nan
41830;BME280;38614;43.472;23.936;2023-02-17T02:42:13;101045.41;;;-1.54;nan
41830;BME280;38614;43.472;23.936;2023-02-17T02:45:06;101032.47;;;-1.42;nan
41830;BME280;38614;43.472;23.936;2023-02-17T02:47:55;101033.09;;;-1.35;nan
41830;BME280;38614;43.472;23.936;2023-02-17T02:54:09;101045.19;;;-1.48;nan
41830;BME280;38614;43.472;23.936;2023-02-17T02:57:09;101039.44;;;-1.51;nan
41830;BME280;38614;43.472;23.936;2023-02-17T03:00:22;101037.56;;;-1.51;nan
41830;BME280;38614;43.472;23.936;2023-02-17T03:03:28;101035.75;;;-1.40;nan
41830;BME280;38614;43.472;23.936;2023-02-17T03:07:08;101037.56;;;-1.51;nan
41830;BME280;38614;43.472;23.936;2023-02-17T03:09:29;101027.13;;;-1.64;nan
41830;BME280;38614;43.472;23.936;2023-02-17T03:12:18;101039.06;;;-1.65;nan
41830;BME280;38614;43.472;23.936;2023-02-17T03:15:32;101036.34;;;-1.65;nan
41830;BME280;38614;43.472;23.936;2023-02-17T03:18:21;101010.78;;;-1.74;nan
41830;BME280;38614;43.472;23.936;2023-02-17T03:21:13;101019.81;;;-1.63;nan
41830;BME280;38614;43.472;23.936;2023-02-17T03:24:03;101031.75;;;-1.64;nan
41830;BME280;38614;43.472;23.936;2023-02-17T03:26:51;101010.47;;;-1.78;nan
41830;BME280;38614;43.472;23.936;2023-02-17T03:29:38;101020.38;;;-1.61;nan
41830;BME280;38614;43.472;23.936;2023-02-17T03:32:26;101006.47;;;-1.70;nan
41830;BME280;38614;43.472;23.936;2023-02-17T03:35:14;101009.19;;;-1.70;nan
41830;BME280;38614;43.472;23.936;2023-02-17T03:38:02;101024.38;;;-1.69;nan
41830;BME280;38614;43.472;23.936;2023-02-17T03:40:50;101001.13;;;-1.92;nan
41830;BME280;38614;43.472;23.936;2023-02-17T03:43:40;101029.44;;;-1.78;nan
41830;BME280;38614;43.472;23.936;2023-02-17T03:46:27;101031.38;;;-1.73;nan
41830;BME280;38614;43.472;23.936;2023-02-17T03:49:15;101028.03;;;-1.85;nan
41830;BME280;38614;43.472;23.936;2023-02-17T03:52:03;101018.22;;;-1.86;nan
41830;BME280;38614;43.472;23.936;2023-02-17T03:54:50;101027.34;;;-1.70;nan
41830;BME280;38614;43.472;23.936;2023-02-17T03:57:39;101023.44;;;-1.80;nan
41830;BME280;38614;43.472;23.936;2023-02-17T04:00:29;101039.56;;;-1.68;nan
41830;BME280;38614;43.472;23.936;2023-02-17T04:03:17;101031.13;;;-1.72;nan
41830;BME280;38614;43.472;23.936;2023-02-17T04:06:07;101036.84;;;-1.68;nan
41830;BME280;38614;43.472;23.936;2023-02-17T04:08:55;101020.47;;;-1.78;nan
41830;BME280;38614;43.472;23.936;2023-02-17T04:11:43;101041.78;;;-1.65;nan
41830;BME280;38614;43.472;23.936;2023-02-17T04:14:31;101033.91;;;-1.66;nan
41830;BME280;38614;43.472;23.936;2023-02-17T04:17:21;101034.97;;;-1.67;nan
41830;BME280;38614;43.472;23.936;2023-02-17T04:20:09;101024.59;;;-1.76;nan
41830;BME280;38614;43.472;23.936;2023-02-17T04:22:57;101024.72;;;-1.60;nan
41830;BME280;38614;43.472;23.936;2023-02-17T04:25:45;101036.66;;;-1.61;nan
41830;BME280;38614;43.472;23.936;2023-02-17T04:28:36;101050.38;;;-1.68;nan
41830;BME280;38614;43.472;23.936;2023-02-17T04:31:23;101034.72;;;-1.66;nan
41830;BME280;38614;43.472;23.936;2023-02-17T04:34:14;101018.94;;;-1.69;nan
41830;BME280;38614;43.472;23.936;2023-02-17T04:37:02;101012.31;;;-1.83;nan
41830;BME280;38614;43.472;23.936;2023-02-17T04:39:49;101039.63;;;-1.63;nan
41830;BME280;38614;43.472;23.936;2023-02-17T04:42:37;101036.66;;;-1.61;nan
41830;BME280;38614;43.472;23.936;2023-02-17T04:45:25;101051.00;;;-1.61;nan
41830;BME280;38614;43.472;23.936;2023-02-17T04:48:13;101041.03;;;-1.55;nan
41830;BME280;38614;43.472;23.936;2023-02-17T04:51:00;101032.75;;;-1.44;nan
41830;BME280;38614;43.472;23.936;2023-02-17T04:53:48;101038.00;;;-1.59;nan
41830;BME280;38614;43.472;23.936;2023-02-17T04:56:38;101055.88;;;-1.63;nan
41830;BME280;38614;43.472;23.936;2023-02-17T04:59:26;101034.00;;;-1.83;nan
41830;BME280;38614;43.472;23.936;2023-02-17T05:02:13;101030.50;;;-1.79;nan
41830;BME280;38614;43.472;23.936;2023-02-17T05:05:01;101041.94;;;-1.77;nan
41830;BME280;38614;43.472;23.936;2023-02-17T05:07:49;101062.91;;;-1.67;nan
41830;BME280;38614;43.472;23.936;2023-02-17T05:10:37;101040.22;;;-1.83;nan
41830;BME280;38614;43.472;23.936;2023-02-17T05:13:24;101069.06;;;-1.72;nan
41830;BME280;38614;43.472;23.936;2023-02-17T05:16:19;101064.56;;;-1.61;nan
41830;BME280;38614;43.472;23.936;2023-02-17T05:19:09;101062.94;;;-1.62;nan
41830;BME280;38614;43.472;23.936;2023-02-17T05:21:57;101069.50;;;-1.58;nan
41830;BME280;38614;43.472;23.936;2023-02-17T05:24:45;101067.97;;;-1.70;nan
41830;BME280;38614;43.472;23.936;2023-02-17T05:27:33;101059.84;;;-1.70;nan
41830;BME280;38614;43.472;23.936;2023-02-17T05:30:21;101067.16;;;-1.71;nan
41830;BME280;38614;43.472;23.936;2023-02-17T05:33:08;101078.44;;;-1.57;nan
41830;BME280;38614;43.472;23.936;2023-02-17T05:36:00;101077.09;;;-1.55;nan
41830;BME280;38614;43.472;23.936;2023-02-17T05:38:49;101079.97;;;-1.39;nan
41830;BME280;38614;43.472;23.936;2023-02-17T05:41:38;101084.91;;;-1.31;nan
41830;BME280;38614;43.472;23.936;2023-02-17T05:44:26;101032.59;;;-1.59;nan
41830;BME280;38614;43.472;23.936;2023-02-17T05:47:13;101055.13;;;-1.26;nan
41830;BME280;38614;43.472;23.936;2023-02-17T05:50:02;101052.38;;;-1.31;nan
41830;BME280;38614;43.472;23.936;2023-02-17T05:52:50;101058.88;;;-1.32;nan
41830;BME280;38614;43.472;23.936;2023-02-17T05:55:38;101079.63;;;-1.16;nan
41830;BME280;38614;43.472;23.936;2023-02-17T05:58:25;101059.28;;;-1.13;nan
41830;BME280;38614;43.472;23.936;2023-02-17T06:01:13;101061.72;;;-1.17;nan
41830;BME280;38614;43.472;23.936;2023-02-17T06:04:01;101086.28;;;-0.97;nan
41830;BME280;38614;43.472;23.936;2023-02-17T06:06:49;101077.53;;;-1.09;nan
41830;BME280;38614;43.472;23.936;2023-02-17T06:09:37;101105.78;;;-0.68;nan
41830;BME280;38614;43.472;23.936;2023-02-17T06:12:24;101103.78;;;-0.82;nan
41830;BME280;38614;43.472;23.936;2023-02-17T06:15:12;101091.19;;;-0.94;nan
41830;BME280;38614;43.472;23.936;2023-02-17T06:18:00;101117.78;;;-0.59;nan
41830;BME280;38614;43.472;23.936;2023-02-17T06:20:48;101111.94;;;-0.40;nan
41830;BME280;38614;43.472;23.936;2023-02-17T06:23:35;101099.16;;;0.13;nan
41830;BME280;38614;43.472;23.936;2023-02-17T06:26:23;101103.94;;;0.89;nan
41830;BME280;38614;43.472;23.936;2023-02-17T06:29:11;101084.22;;;1.78;nan
41830;BME280;38614;43.472;23.936;2023-02-17T06:31:59;101100.06;;;2.36;nan
41830;BME280;38614;43.472;23.936;2023-02-17T06:34:46;101097.84;;;2.43;nan
41830;BME280;38614;43.472;23.936;2023-02-17T06:37:35;101105.97;;;1.93;nan
41830;BME280;38614;43.472;23.936;2023-02-17T06:40:23;101100.66;;;1.32;nan
41830;BME280;38614;43.472;23.936;2023-02-17T06:43:13;101118.34;;;1.20;nan
41830;BME280;38614;43.472;23.936;2023-02-17T06:46:00;101105.31;;;1.32;nan
41830;BME280;38614;43.472;23.936;2023-02-17T06:48:48;101106.38;;;1.36;nan
41830;BME280;38614;43.472;23.936;2023-02-17T06:51:36;101115.38;;;1.26;nan
41830;BME280;38614;43.472;23.936;2023-02-17T06:54:24;101118.91;;;1.37;nan
41830;BME280;38614;43.472;23.936;2023-02-17T06:57:11;101124.63;;;2.31;nan
41830;BME280;38614;43.472;23.936;2023-02-17T06:59:59;101119.75;;;3.69;nan
41830;BME280;38614;43.472;23.936;2023-02-17T07:02:47;101094.81;;;4.61;nan
41830;BME280;38614;43.472;23.936;2023-02-17T07:05:36;101118.63;;;5.50;nan
41830;BME280;38614;43.472;23.936;2023-02-17T07:08:24;101095.09;;;6.04;nan
41830;BME280;38614;43.472;23.936;2023-02-17T07:11:13;101120.50;;;6.37;nan
41830;BME280;38614;43.472;23.936;2023-02-17T07:14:01;101121.66;;;6.72;nan
41830;BME280;38614;43.472;23.936;2023-02-17T07:16:49;101112.53;;;7.21;nan
41830;BME280;38614;43.472;23.936;2023-02-17T07:19:37;101120.63;;;7.04;nan
41830;BME280;38614;43.472;23.936;2023-02-17T07:22:24;101103.97;;;7.00;nan
41830;BME280;38614;43.472;23.936;2023-02-17T07:25:13;101114.25;;;6.72;nan
41830;BME280;38614;43.472;23.936;2023-02-17T07:28:00;101115.00;;;6.86;nan
41830;BME280;38614;43.472;23.936;2023-02-17T07:30:48;101110.44;;;7.04;nan
41830;BME280;38614;43.472;23.936;2023-02-17T07:33:36;101117.81;;;6.95;nan
41830;BME280;38614;43.472;23.936;2023-02-17T07:36:24;101105.38;;;7.42;nan
41830;BME280;38614;43.472;23.936;2023-02-17T07:39:12;101093.00;;;7.31;nan
41830;BME280;38614;43.472;23.936;2023-02-17T07:41:59;101118.69;;;7.49;nan
41830;BME280;38614;43.472;23.936;2023-02-17T07:44:47;101114.41;;;7.65;nan
41830;BME280;38614;43.472;23.936;2023-02-17T07:47:35;101089.81;;;7.69;nan
41830;BME280;38614;43.472;23.936;2023-02-17T07:50:23;101107.81;;;8.15;nan
41830;BME280;38614;43.472;23.936;2023-02-17T07:53:10;101116.50;;;8.39;nan
41830;BME280;38614;43.472;23.936;2023-02-17T07:55:58;101111.34;;;8.64;nan
41830;BME280;38614;43.472;23.936;2023-02-17T07:58:47;101110.22;;;8.82;nan
41830;BME280;38614;43.472;23.936;2023-02-17T08:01:35;101114.72;;;9.21;nan
41830;BME280;38614;43.472;23.936;2023-02-17T08:04:40;101093.28;;;9.53;nan
41830;BME280;38614;43.472;23.936;2023-02-17T08:07:28;101105.25;;;10.04;nan
41830;BME280;38614;43.472;23.936;2023-02-17T08:10:16;101104.56;;;10.15;nan
41830;BME280;38614;43.472;23.936;2023-02-17T08:13:24;101093.38;;;10.41;nan
41830;BME280;38614;43.472;23.936;2023-02-17T08:16:12;101089.34;;;10.39;nan
41830;BME280;38614;43.472;23.936;2023-02-17T08:19:00;101102.63;;;10.87;nan
41830;BME280;38614;43.472;23.936;2023-02-17T08:21:48;101081.09;;;11.13;nan
41830;BME280;38614;43.472;23.936;2023-02-17T08:24:36;101106.13;;;11.62;nan
41830;BME280;38614;43.472;23.936;2023-02-17T08:27:23;101096.41;;;11.89;nan
41830;BME280;38614;43.472;23.936;2023-02-17T08:30:11;101097.13;;;12.11;nan
41830;BME280;38614;43.472;23.936;2023-02-17T08:32:59;101075.16;;;12.18;nan
41830;BME280;38614;43.472;23.936;2023-02-17T08:35:47;101094.88;;;12.53;nan
41830;BME280;38614;43.472;23.936;2023-02-17T08:38:35;101080.97;;;12.77;nan
41830;BME280;38614;43.472;23.936;2023-02-17T08:41:26;101100.38;;;13.18;nan
41830;BME280;38614;43.472;23.936;2023-02-17T08:44:18;101102.19;;;13.54;nan
41830;BME280;38614;43.472;23.936;2023-02-17T08:47:07;101101.22;;;13.62;nan
41830;BME280;38614;43.472;23.936;2023-02-17T08:49:56;101073.25;;;13.55;nan
41830;BME280;38614;43.472;23.936;2023-02-17T08:52:45;101100.94;;;13.67;nan
41830;BME280;38614;43.472;23.936;2023-02-17T08:55:34;101088.13;;;13.94;nan
41830;BME280;38614;43.472;23.936;2023-02-17T08:58:35;101104.44;;;14.27;nan
41830;BME280;38614;43.472;23.936;2023-02-17T09:01:23;101105.78;;;14.33;nan
41830;BME280;38614;43.472;23.936;2023-02-17T09:04:12;101092.66;;;14.49;nan
41830;BME280;38614;43.472;23.936;2023-02-17T09:07:00;101057.97;;;14.27;nan
41830;BME280;38614;43.472;23.936;2023-02-17T09:09:48;101092.94;;;14.29;nan
41830;BME280;38614;43.472;23.936;2023-02-17T09:12:36;101098.75;;;14.55;nan
41830;BME280;38614;43.472;23.936;2023-02-17T09:15:23;101072.13;;;14.54;nan
41830;BME280;38614;43.472;23.936;2023-02-17T09:18:11;101104.41;;;14.78;nan
41830;BME280;38614;43.472;23.936;2023-02-17T09:21:07;101100.66;;;14.70;nan
41830;BME280;38614;43.472;23.936;2023-02-17T09:23:55;101096.59;;;14.64;nan
41830;BME280;38614;43.472;23.936;2023-02-17T09:26:43;101108.91;;;15.02;nan
41830;BME280;38614;43.472;23.936;2023-02-17T09:29:31;101104.81;;;14.96;nan
41830;BME280;38614;43.472;23.936;2023-02-17T09:32:19;101089.59;;;14.90;nan
41830;BME280;38614;43.472;23.936;2023-02-17T09:35:10;101124.72;;;14.98;nan
41830;BME280;38614;43.472;23.936;2023-02-17T09:37:58;101108.19;;;15.05;nan
41830;BME280;38614;43.472;23.936;2023-02-17T09:40:48;101107.53;;;15.11;nan
41830;BME280;38614;43.472;23.936;2023-02-17T09:43:36;101117.31;;;15.25;nan
41830;BME280;38614;43.472;23.936;2023-02-17T09:46:40;101109.66;;;15.18;nan
41830;BME280;38614;43.472;23.936;2023-02-17T09:49:53;101094.59;;;15.42;nan
41830;BME280;38614;43.472;23.936;2023-02-17T09:53:04;101125.22;;;15.61;nan
41830;BME280;38614;43.472;23.936;2023-02-17T09:55:54;101093.50;;;15.47;nan
41830;BME280;38614;43.472;23.936;2023-02-17T09:58:50;101113.53;;;15.98;nan
41830;BME280;38614;43.472;23.936;2023-02-17T10:01:40;101121.22;;;16.05;nan
41830;BME280;38614;43.472;23.936;2023-02-17T10:04:40;101119.94;;;15.76;nan
41830;BME280;38614;43.472;23.936;2023-02-17T10:07:53;101100.38;;;15.53;nan
41830;BME280;38614;43.472;23.936;2023-02-17T10:10:49;101096.75;;;15.72;nan
41830;BME280;38614;43.472;23.936;2023-02-17T10:13:41;101111.47;;;15.91;nan
41830;BME280;38614;43.472;23.936;2023-02-17T10:16:35;101089.16;;;15.68;nan
41830;BME280;38614;43.472;23.936;2023-02-17T10:19:51;101104.31;;;15.94;nan
41830;BME280;38614;43.472;23.936;2023-02-17T10:22:47;101102.28;;;16.40;nan
41830;BME280;38614;43.472;23.936;2023-02-17T10:28:50;101095.78;;;16.33;nan
41830;BME280;38614;43.472;23.936;2023-02-17T10:31:47;101072.78;;;16.13;nan
41830;BME280;38614;43.472;23.936;2023-02-17T10:34:57;101085.66;;;16.21;nan
41830;BME280;38614;43.472;23.936;2023-02-17T10:38:02;101092.47;;;16.50;nan
41830;BME280;38614;43.472;23.936;2023-02-17T10:40:53;101065.88;;;16.30;nan
41830;BME280;38614;43.472;23.936;2023-02-17T10:43:43;101100.97;;;16.08;nan
41830;BME280;38614;43.472;23.936;2023-02-17T10:46:31;101081.06;;;16.09;nan
41830;BME280;38614;43.472;23.936;2023-02-17T10:49:29;101078.22;;;16.06;nan
41830;BME280;38614;43.472;23.936;2023-02-17T10:52:21;101062.13;;;15.95;nan
41830;BME280;38614;43.472;23.936;2023-02-17T10:55:32;101061.63;;;16.13;nan
41830;BME280;38614;43.472;23.936;2023-02-17T10:58:27;101039.53;;;15.78;nan
41830;BME280;38614;43.472;23.936;2023-02-17T11:01:18;101080.63;;;16.07;nan
41830;BME280;38614;43.472;23.936;2023-02-17T11:04:08;101064.88;;;16.18;nan
41830;BME280;38614;43.472;23.936;2023-02-17T11:07:00;101059.75;;;16.20;nan
41830;BME280;38614;43.472;23.936;2023-02-17T11:09:50;101077.06;;;16.60;nan
41830;BME280;38614;43.472;23.936;2023-02-17T11:12:40;101075.53;;;16.66;nan
41830;BME280;38614;43.472;23.936;2023-02-17T11:15:36;101068.16;;;16.50;nan
41830;BME280;38614;43.472;23.936;2023-02-17T11:18:35;101070.94;;;15.98;nan
41830;BME280;38614;43.472;23.936;2023-02-17T11:21:29;101063.34;;;16.21;nan
41830;BME280;38614;43.472;23.936;2023-02-17T11:24:20;101072.81;;;16.43;nan
41830;BME280;38614;43.472;23.936;2023-02-17T11:27:10;101051.53;;;16.58;nan
41830;BME280;38614;43.472;23.936;2023-02-17T11:30:14;101059.84;;;16.28;nan
41830;BME280;38614;43.472;23.936;2023-02-17T11:33:13;101069.50;;;16.34;nan
41830;BME280;38614;43.472;23.936;2023-02-17T11:36:03;101045.81;;;16.20;nan
41830;BME280;38614;43.472;23.936;2023-02-17T11:38:51;101054.72;;;16.60;nan
41830;BME280;38614;43.472;23.936;2023-02-17T11:41:39;101054.47;;;16.68;nan
41830;BME280;38614;43.472;23.936;2023-02-17T11:44:27;101032.03;;;16.61;nan
41830;BME280;38614;43.472;23.936;2023-02-17T11:53:41;101039.06;;;16.78;nan
41830;BME280;38614;43.472;23.936;2023-02-17T11:56:38;101039.56;;;16.87;nan
41830;BME280;38614;43.472;23.936;2023-02-17T11:59:48;101040.69;;;16.83;nan
41830;BME280;38614;43.472;23.936;2023-02-17T12:02:43;101038.66;;;16.79;nan
41830;BME280;38614;43.472;23.936;2023-02-17T12:06:00;101031.19;;;16.87;nan
41830;BME280;38614;43.472;23.936;2023-02-17T12:12:28;101000.94;;;16.63;nan
41830;BME280;38614;43.472;23.936;2023-02-17T12:15:39;100975.31;;;16.53;nan
41830;BME280;38614;43.472;23.936;2023-02-17T12:18:48;101015.03;;;16.70;nan
41830;BME280;38614;43.472;23.936;2023-02-17T12:22:01;101011.66;;;16.87;nan
41830;BME280;38614;43.472;23.936;2023-02-17T12:24:55;101001.78;;;16.97;nan
41830;BME280;38614;43.472;23.936;2023-02-17T12:36:43;100992.44;;;16.82;nan
41830;BME280;38614;43.472;23.936;2023-02-17T12:39:52;100999.97;;;16.78;nan
41830;BME280;38614;43.472;23.936;2023-02-17T12:42:47;100990.94;;;16.58;nan
41830;BME280;38614;43.472;23.936;2023-02-17T12:45:42;100980.97;;;16.57;nan
41830;BME280;38614;43.472;23.936;2023-02-17T12:48:56;100987.03;;;16.36;nan
41830;BME280;38614;43.472;23.936;2023-02-17T12:51:56;100995.03;;;16.38;nan
41830;BME280;38614;43.472;23.936;2023-02-17T12:54:55;100980.63;;;16.32;nan
41830;BME280;38614;43.472;23.936;2023-02-17T12:57:56;100980.16;;;16.27;nan
41830;BME280;38614;43.472;23.936;2023-02-17T13:03:37;100964.47;;;16.15;nan
41830;BME280;38614;43.472;23.936;2023-02-17T13:06:36;100979.69;;;16.21;nan
41830;BME280;38614;43.472;23.936;2023-02-17T13:09:34;100992.16;;;16.31;nan
41830;BME280;38614;43.472;23.936;2023-02-17T13:15:32;100994.47;;;16.25;nan
41830;BME280;38614;43.472;23.936;2023-02-17T13:18:29;100960.81;;;16.11;nan
41830;BME280;38614;43.472;23.936;2023-02-17T13:24:31;100985.84;;;16.07;nan
41830;BME280;38614;43.472;23.936;2023-02-17T13:33:30;100981.56;;;16.13;nan
41830;BME280;38614;43.472;23.936;2023-02-17T13:36:22;100978.56;;;15.99;nan
41830;BME280;38614;43.472;23.936;2023-02-17T13:51:24;100997.25;;;15.72;nan
41830;BME280;38614;43.472;23.936;2023-02-17T13:54:14;100994.13;;;15.74;nan
41830;BME280;38614;43.472;23.936;2023-02-17T13:57:24;100986.38;;;15.63;nan
41830;BME280;38614;43.472;23.936;2023-02-17T14:00:27;100994.38;;;15.65;nan
41830;BME280;38614;43.472;23.936;2023-02-17T14:03:33;100992.59;;;15.57;nan
41830;BME280;38614;43.472;23.936;2023-02-17T14:06:36;100987.75;;;15.54;nan
41830;BME280;38614;43.472;23.936;2023-02-17T14:09:34;100982.25;;;15.34;nan
41830;BME280;38614;43.472;23.936;2023-02-17T14:12:28;100958.56;;;15.21;nan
41830;BME280;38614;43.472;23.936;2023-02-17T14:15:25;100989.31;;;15.28;nan
41830;BME280;38614;43.472;23.936;2023-02-17T14:18:27;100970.31;;;15.11;nan
41830;BME280;38614;43.472;23.936;2023-02-17T14:21:27;100945.50;;;15.02;nan
41830;BME280;38614;43.472;23.936;2023-02-17T14:24:31;100971.13;;;15.11;nan
41830;BME280;38614;43.472;23.936;2023-02-17T14:27:19;100972.03;;;14.96;nan
41830;BME280;38614;43.472;23.936;2023-02-17T14:30:31;100940.59;;;14.73;nan
41830;BME280;38614;43.472;23.936;2023-02-17T14:33:22;100971.53;;;14.91;nan
41830;BME280;38614;43.472;23.936;2023-02-17T14:36:11;100965.25;;;14.74;nan
41830;BME280;38614;43.472;23.936;2023-02-17T14:39:01;100964.94;;;14.60;nan
41830;BME280;38614;43.472;23.936;2023-02-17T14:42:08;100963.22;;;14.52;nan
41830;BME280;38614;43.472;23.936;2023-02-17T14:48:02;100975.50;;;14.51;nan
41830;BME280;38614;43.472;23.936;2023-02-17T14:50:52;100943.59;;;14.10;nan
41830;BME280;38614;43.472;23.936;2023-02-17T14:53:40;100916.63;;;13.75;nan
41830;BME280;38614;43.472;23.936;2023-02-17T14:56:34;100941.81;;;13.82;nan
41830;BME280;38614;43.472;23.936;2023-02-17T14:59:23;100980.94;;;13.93;nan
41830;BME280;38614;43.472;23.936;2023-02-17T15:02:16;100977.00;;;13.94;nan
41830;BME280;38614;43.472;23.936;2023-02-17T15:05:10;100967.06;;;13.77;nan
41830;BME280;38614;43.472;23.936;2023-02-17T15:07:59;100973.63;;;13.69;nan
41830;BME280;38614;43.472;23.936;2023-02-17T15:10:48;100975.31;;;13.74;nan
41830;BME280;38614;43.472;23.936;2023-02-17T15:13:35;100937.00;;;13.48;nan
41830;BME280;38614;43.472;23.936;2023-02-17T15:16:24;100966.47;;;13.52;nan
41830;BME280;38614;43.472;23.936;2023-02-17T15:19:13;100965.94;;;13.47;nan
41830;BME280;38614;43.472;23.936;2023-02-17T15:22:04;100947.13;;;13.24;nan
41830;BME280;38614;43.472;23.936;2023-02-17T15:24:52;100940.13;;;13.15;nan
41830;BME280;38614;43.472;23.936;2023-02-17T15:27:40;100960.44;;;13.03;nan
41830;BME280;38614;43.472;23.936;2023-02-17T15:30:28;100975.03;;;13.16;nan
41830;BME280;38614;43.472;23.936;2023-02-17T15:33:17;100981.31;;;13.12;nan
41830;BME280;38614;43.472;23.936;2023-02-17T15:36:05;100972.38;;;12.91;nan
41830;BME280;38614;43.472;23.936;2023-02-17T15:38:53;100975.75;;;12.69;nan
41830;BME280;38614;43.472;23.936;2023-02-17T15:41:45;100978.66;;;12.60;nan
41830;BME280;38614;43.472;23.936;2023-02-17T15:44:39;100990.47;;;12.45;nan
41830;BME280;38614;43.472;23.936;2023-02-17T15:47:30;100974.56;;;12.42;nan
41830;BME280;38614;43.472;23.936;2023-02-17T15:50:20;100982.25;;;12.20;nan
41830;BME280;38614;43.472;23.936;2023-02-17T15:53:09;100989.53;;;12.13;nan
41830;BME280;38614;43.472;23.936;2023-02-17T15:55:58;100991.66;;;11.91;nan
41830;BME280;38614;43.472;23.936;2023-02-17T15:58:49;100965.91;;;11.54;nan
41830;BME280;38614;43.472;23.936;2023-02-17T16:01:37;100981.81;;;11.69;nan
41830;BME280;38614;43.472;23.936;2023-02-17T16:04:25;100985.03;;;11.59;nan
41830;BME280;38614;43.472;23.936;2023-02-17T16:07:13;100978.19;;;11.45;nan
41830;BME280;38614;43.472;23.936;2023-02-17T16:10:01;100988.00;;;11.30;nan
41830;BME280;38614;43.472;23.936;2023-02-17T16:12:50;100995.59;;;11.21;nan
41830;BME280;38614;43.472;23.936;2023-02-17T16:15:38;100999.50;;;11.07;nan
41830;BME280;38614;43.472;23.936;2023-02-17T16:18:26;101002.34;;;10.99;nan
41830;BME280;38614;43.472;23.936;2023-02-17T16:21:14;100989.69;;;10.77;nan